Time;durP1;ratioP1;P1;durP2;ratioP2;P2;SDS_P1;SDS_P2;PMS_P1;PMS_P2;Temp;Humidity;BMP_temperature;BMP_pressure;BME280_temperature;BME280_humidity;BME280_pressure;Samples;Min_cycle;Max_cycle;Signal;HPM_P1;HPM_P2
2021/12/24 00:00:09;;;;;;;48.35;34.38;;;;;;;8.47;87.08;100330.09;3570472;40;20056;-62
2021/12/24 00:02:35;;;;;;;52.97;33.65;;;;;;;8.47;86.43;100321.16;3582597;40;20458;-63
2021/12/24 00:05:01;;;;;;;44.70;32.78;;;;;;;8.54;86.40;100326.06;3583455;40;20052;-61
2021/12/24 00:07:26;;;;;;;42.35;30.45;;;;;;;8.54;86.22;100328.75;3581265;40;20063;-62
2021/12/24 00:09:52;;;;;;;45.72;33.22;;;;;;;8.52;86.61;100330.66;3582434;40;20355;-62
2021/12/24 00:12:20;;;;;;;44.65;31.75;;;;;;;8.50;86.43;100312.94;3581469;40;20052;-62
2021/12/24 00:14:51;;;;;;;38.70;29.15;;;;;;;8.55;86.39;100313.53;3582498;40;20290;-63
2021/12/24 00:17:23;;;;;;;35.15;27.55;;;;;;;8.54;86.86;100317.19;3582311;40;20064;-62
2021/12/24 00:20:31;;;;;;;41.03;29.80;;;;;;;8.54;87.20;100317.19;3582417;40;20084;-62
2021/12/24 00:36:08;;;;;;;39.78;30.05;;;;;;;8.58;87.51;100290.09;3580820;40;20063;-62
2021/12/24 00:38:33;;;;;;;36.97;31.42;;;;;;;8.57;87.47;100290.22;3579467;40;20056;-62
2021/12/24 00:40:59;;;;;;;40.55;30.55;;;;;;;8.59;87.36;100302.56;3581556;40;20564;-62
2021/12/24 00:43:25;;;;;;;38.40;29.58;;;;;;;8.61;86.79;100286.38;3579056;40;20072;-62
2021/12/24 00:45:51;;;;;;;39.38;30.75;;;;;;;8.66;86.72;100288.75;3583892;40;20048;-62
2021/12/24 00:48:20;;;;;;;38.50;31.20;;;;;;;8.61;87.38;100281.00;3582198;40;20052;-62
2021/12/24 00:56:01;;;;;;;37.75;30.02;;;;;;;8.68;87.23;100273.44;3582004;40;20044;-62
2021/12/24 00:58:26;;;;;;;35.83;29.05;;;;;;;8.54;87.54;100245.72;3581334;40;20048;-62
2021/12/24 01:00:52;;;;;;;37.20;30.05;;;;;;;8.73;87.57;100274.03;3578778;40;20341;-62
2021/12/24 01:03:18;;;;;;;37.67;30.48;;;;;;;8.65;87.10;100258.41;3581094;40;20048;-62
2021/12/24 01:05:44;;;;;;;37.60;30.70;;;;;;;8.73;86.98;100280.25;3580305;40;20052;-62
2021/12/24 01:08:14;;;;;;;39.85;31.92;;;;;;;8.75;87.76;100272.97;3576835;40;20060;-62
2021/12/24 01:10:49;;;;;;;42.67;32.00;;;;;;;8.75;87.74;100274.78;3579276;40;20059;-62
2021/12/24 01:13:15;;;;;;;41.78;33.10;;;;;;;8.78;87.07;100272.75;3580510;40;20068;-62
2021/12/24 01:21:24;;;;;;;45.58;35.03;;;;;;;8.85;87.96;100267.91;3581200;40;20048;-62
2021/12/24 01:23:54;;;;;;;44.10;34.45;;;;;;;8.88;87.50;100259.66;3579230;40;20052;-62
2021/12/24 01:26:47;;;;;;;46.70;36.72;;;;;;;8.95;87.22;100262.81;3580636;40;20405;-62
2021/12/24 01:40:05;;;;;;;54.00;41.08;;;;;;;9.00;88.23;100261.53;3581717;40;20079;-62
2021/12/24 01:42:46;;;;;;;53.10;41.35;;;;;;;9.02;88.26;100264.97;3580640;40;20057;-62
2021/12/24 01:45:18;;;;;;;60.40;44.63;;;;;;;9.07;88.07;100262.03;3580528;40;20052;-62
2021/12/24 01:47:45;;;;;;;65.50;45.88;;;;;;;8.87;88.30;100228.44;3580322;40;20061;-62
2021/12/24 01:50:13;;;;;;;59.78;43.33;;;;;;;9.13;88.36;100260.75;3579563;40;20052;-62
2021/12/24 01:52:39;;;;;;;59.03;43.63;;;;;;;9.13;87.73;100268.78;3572445;40;20331;-62
2021/12/24 01:55:10;;;;;;;64.40;45.92;;;;;;;9.16;88.25;100265.91;3582347;40;20055;-62
2021/12/24 01:57:42;;;;;;;61.00;45.60;;;;;;;9.18;88.29;100261.31;3581735;40;20053;-62
2021/12/24 02:00:15;;;;;;;58.53;45.15;;;;;;;9.20;87.77;100268.31;3580938;40;20067;-63
2021/12/24 02:02:42;;;;;;;57.72;44.33;;;;;;;9.17;88.14;100251.56;3581101;40;20133;-62
2021/12/24 02:05:09;;;;;;;55.83;44.22;;;;;;;9.22;88.34;100260.16;3580550;40;20059;-62
2021/12/24 02:07:35;;;;;;;59.55;44.97;;;;;;;9.22;87.75;100255.63;3579973;40;20064;-62
2021/12/24 02:10:00;;;;;;;56.15;43.53;;;;;;;9.26;87.82;100253.59;3577884;40;20052;-62
2021/12/24 02:12:27;;;;;;;55.75;42.80;;;;;;;9.25;87.65;100258.13;3621485;23;20142;-62
2021/12/24 02:14:57;;;;;;;55.83;42.63;;;;;;;9.28;88.41;100257.06;3586760;40;20091;-63
2021/12/24 02:17:44;;;;;;;59.05;43.42;;;;;;;9.24;88.36;100247.50;3586361;39;20048;-62
2021/12/24 02:31:03;;;;;;;58.00;43.80;;;;;;;9.37;87.90;100251.09;3582590;40;20055;-62
2021/12/24 02:33:29;;;;;;;57.90;43.25;;;;;;;9.40;88.02;100242.84;3583588;40;20335;-62
2021/12/24 02:35:55;;;;;;;53.40;43.13;;;;;;;9.42;88.07;100245.41;3580824;40;20060;-62
2021/12/24 02:38:21;;;;;;;60.65;45.13;;;;;;;9.40;87.53;100242.00;3582125;40;20068;-62
2021/12/24 02:40:48;;;;;;;62.92;45.00;;;;;;;9.29;88.02;100215.84;3578430;40;20391;-63
2021/12/24 02:43:17;;;;;;;64.68;46.58;;;;;;;9.31;87.65;100222.00;3577017;40;20052;-62
2021/12/24 02:45:44;;;;;;;65.47;46.67;;;;;;;9.40;87.84;100229.44;3579774;40;20057;-62
2021/12/24 02:56:11;;;;;;;71.72;51.22;;;;;;;9.44;87.49;100212.16;3583062;40;20054;-63
2021/12/24 02:58:43;;;;;;;74.60;50.17;;;;;;;9.51;88.22;100224.22;3589688;39;20052;-63
2021/12/24 03:01:14;;;;;;;74.25;50.92;;;;;;;9.54;87.32;100233.88;3579662;40;20053;-62
2021/12/24 03:03:40;;;;;;;84.13;53.95;;;;;;;9.54;87.57;100244.59;3585172;40;20051;-63
2021/12/24 03:06:07;;;;;;;78.97;55.30;;;;;;;9.37;87.69;100204.63;3581285;40;20348;-63
2021/12/24 03:08:34;;;;;;;80.43;54.25;;;;;;;9.36;87.94;100192.19;3583226;40;20048;-63
2021/12/24 03:11:00;;;;;;;77.53;51.45;;;;;;;9.50;87.52;100219.81;3582660;40;20126;-63
2021/12/24 03:13:27;;;;;;;79.80;54.38;;;;;;;9.48;87.76;100219.06;3581545;40;20064;-65
2021/12/24 03:15:59;;;;;;;79.55;51.75;;;;;;;9.61;87.63;100234.31;3581875;40;20063;-63
2021/12/24 03:18:31;;;;;;;83.47;53.35;;;;;;;9.62;88.11;100241.41;3583027;40;20056;-62
2021/12/24 03:21:18;;;;;;;80.38;53.53;;;;;;;9.59;87.90;100237.13;3583184;40;20048;-62
2021/12/24 03:24:33;;;;;;;83.78;54.80;;;;;;;9.63;87.55;100235.06;3582604;40;20048;-63
2021/12/24 03:26:45;;;;;;;80.95;54.50;;;;;;;9.59;88.08;100234.44;3578460;40;20057;-62
2021/12/24 03:29:14;;;;;;;87.65;56.60;;;;;;;9.63;88.51;100245.81;3578722;40;20047;-63
2021/12/24 03:31:40;;;;;;;97.28;60.55;;;;;;;9.65;88.31;100246.59;3577811;40;20057;-62
2021/12/24 03:34:14;;;;;;;89.90;59.00;;;;;;;9.65;87.58;100251.94;3575714;40;21603;-62
2021/12/24 03:36:40;;;;;;;94.28;59.72;;;;;;;9.63;88.01;100249.34;3583027;40;20055;-64
2021/12/24 03:39:09;;;;;;;92.32;59.65;;;;;;;9.64;87.80;100244.84;3582039;40;20060;-63
2021/12/24 03:41:36;;;;;;;88.00;57.60;;;;;;;9.67;87.66;100247.31;3580705;40;20399;-63
2021/12/24 03:44:02;;;;;;;92.30;59.90;;;;;;;9.66;88.07;100242.94;3579937;40;20056;-62
2021/12/24 03:46:37;;;;;;;95.13;58.88;;;;;;;9.67;87.35;100244.63;3582209;40;20084;-63
2021/12/24 03:49:16;;;;;;;93.10;59.28;;;;;;;9.69;87.63;100250.78;3579672;40;20056;-63
2021/12/24 03:51:51;;;;;;;97.05;61.00;;;;;;;9.66;87.16;100248.28;3584221;40;20592;-63
2021/12/24 03:57:01;;;;;;;93.57;58.13;;;;;;;9.65;87.28;100247.44;3584029;40;20048;-63
2021/12/24 03:59:27;;;;;;;96.22;55.70;;;;;;;9.60;87.54;100237.97;3580270;40;20052;-63
2021/12/24 04:01:52;;;;;;;90.72;57.72;;;;;;;9.60;87.48;100236.13;3584628;40;20044;-64
2021/12/24 04:04:18;;;;;;;86.80;54.40;;;;;;;9.72;87.93;100247.88;3584369;40;20071;-62
2021/12/24 04:06:44;;;;;;;92.32;57.05;;;;;;;9.72;87.70;100250.56;3582015;40;20048;-63
2021/12/24 04:09:11;;;;;;;80.07;53.03;;;;;;;9.54;87.06;100215.94;3581067;40;20440;-63
2021/12/24 04:11:38;;;;;;;76.57;51.00;;;;;;;9.72;87.18;100246.06;3581094;40;20375;-63
2021/12/24 04:14:05;;;;;;;74.70;50.88;;;;;;;9.77;87.43;100259.19;3583653;40;20052;-64
2021/12/24 04:16:31;;;;;;;78.32;51.28;;;;;;;9.76;86.82;100262.81;3581375;40;20052;-63
2021/12/24 04:19:22;;;;;;;72.28;47.42;;;;;;;9.70;87.56;100241.75;3582922;40;20130;-63
2021/12/24 04:25:05;;;;;;;59.17;41.72;;;;;;;9.71;86.50;100240.81;3582633;40;20059;-63
2021/12/24 04:27:28;;;;;;;57.35;38.85;;;;;;;9.70;86.87;100239.06;3581452;40;20374;-64
2021/12/24 04:30:02;;;;;;;57.58;38.47;;;;;;;9.65;86.63;100230.47;3574829;40;20511;-63
2021/12/24 04:32:46;;;;;;;53.45;36.33;;;;;;;9.68;86.40;100249.91;3580873;40;20059;-62
2021/12/24 04:51:39;;;;;;;;;;;;;;;9.74;85.36;100243.28;3578857;40;20101;-62
2021/12/24 05:04:51;;;;;;;37.78;24.08;;;;;;;9.74;85.35;100237.91;3581065;40;20104;-64
2021/12/24 05:08:01;;;;;;;40.90;24.65;;;;;;;9.79;85.11;100249.19;3579548;40;20073;-63
2021/12/24 05:10:22;;;;;;;37.55;23.80;;;;;;;9.64;85.04;100229.63;3582645;40;20107;-64
2021/12/24 05:12:48;;;;;;;38.38;22.85;;;;;;;9.73;84.94;100249.59;3584004;40;20048;-64
2021/12/24 05:15:14;;;;;;;36.97;24.02;;;;;;;9.76;85.41;100254.75;3580256;40;20052;-63
2021/12/24 05:22:59;;;;;;;38.38;21.17;;;;;;;9.77;85.21;100257.34;3583842;40;20097;-65
2021/12/24 05:25:25;;;;;;;34.78;21.50;;;;;;;9.74;84.86;100256.69;3582231;40;20187;-64
2021/12/24 05:27:55;;;;;;;36.20;20.75;;;;;;;9.69;84.96;100248.09;3583045;40;20169;-64
2021/12/24 05:30:24;;;;;;;32.22;20.80;;;;;;;9.63;84.65;100254.72;3581971;40;20053;-64
2021/12/24 05:32:50;;;;;;;35.53;20.88;;;;;;;9.76;84.58;100265.50;3583542;40;20122;-64
2021/12/24 05:35:15;;;;;;;28.88;18.90;;;;;;;9.74;84.26;100262.94;3583931;40;20052;-63
2021/12/24 05:37:41;;;;;;;31.08;19.90;;;;;;;9.73;84.79;100273.75;3584777;40;20114;-63
2021/12/24 05:40:08;;;;;;;32.08;18.75;;;;;;;9.70;84.50;100264.06;3581143;40;20061;-64
2021/12/24 05:42:34;;;;;;;30.92;18.40;;;;;;;9.67;84.60;100255.38;3579262;40;20314;-63
2021/12/24 05:45:04;;;;;;;30.83;17.80;;;;;;;9.72;84.51;100266.66;3582929;40;20068;-64
2021/12/24 05:47:30;;;;;;;29.17;16.35;;;;;;;9.70;83.87;100272.13;3581425;40;20091;-63
2021/12/24 05:49:56;;;;;;;31.25;16.83;;;;;;;9.67;84.33;100276.84;3582209;40;20106;-63
2021/12/24 05:52:22;;;;;;;30.02;15.88;;;;;;;9.64;83.78;100266.31;3582367;40;20063;-63
2021/12/24 05:54:48;;;;;;;26.90;14.57;;;;;;;9.56;83.84;100257.94;3581352;40;20048;-64
2021/12/24 05:57:14;;;;;;;29.92;14.98;;;;;;;9.64;83.66;100256.47;3583620;40;20051;-64
2021/12/24 05:59:40;;;;;;;32.33;15.18;;;;;;;9.65;83.88;100260.84;3583112;40;20292;-64
2021/12/24 06:02:06;;;;;;;29.38;15.35;;;;;;;9.69;84.01;100267.72;3581943;40;20064;-64
2021/12/24 06:04:32;;;;;;;33.97;15.63;;;;;;;9.60;83.76;100267.47;3582533;40;20417;-63
2021/12/24 06:06:58;;;;;;;28.27;14.57;;;;;;;9.69;83.60;100281.16;3578050;40;20095;-63
2021/12/24 06:09:24;;;;;;;27.13;14.93;;;;;;;9.64;83.94;100266.31;3580308;40;20147;-63
2021/12/24 06:11:50;;;;;;;29.77;14.18;;;;;;;9.61;83.93;100264.72;3580643;40;20094;-64
2021/12/24 06:14:16;;;;;;;28.33;14.55;;;;;;;9.67;83.80;100271.47;3581958;40;20931;-63
2021/12/24 06:17:00;;;;;;;27.00;14.27;;;;;;;9.67;83.45;100274.16;3581904;40;20056;-64
2021/12/24 06:19:26;;;;;;;28.58;14.18;;;;;;;9.64;83.59;100266.31;3582542;40;20064;-63
2021/12/24 06:21:53;;;;;;;27.05;14.25;;;;;;;9.64;83.60;100271.69;3580436;40;20061;-63
2021/12/24 06:24:19;;;;;;;25.00;14.38;;;;;;;9.54;83.70;100260.69;3578675;40;20052;-64
2021/12/24 06:26:46;;;;;;;28.02;13.60;;;;;;;9.62;82.97;100273.63;3588582;40;20130;-64
2021/12/24 06:29:12;;;;;;;31.92;13.02;;;;;;;9.66;83.11;100280.50;3582121;40;20299;-63
2021/12/24 06:31:38;;;;;;;32.33;13.75;;;;;;;9.68;82.79;100271.38;3581784;40;20060;-63
2021/12/24 06:34:04;;;;;;;28.17;12.68;;;;;;;9.69;82.78;100277.59;3581492;40;20090;-64
2021/12/24 06:36:34;;;;;;;29.38;12.63;;;;;;;9.69;83.11;100274.91;3582403;40;20066;-65
2021/12/24 06:39:01;;;;;;;28.95;12.63;;;;;;;9.63;83.44;100268.13;3582007;40;20384;-63
2021/12/24 06:41:26;;;;;;;25.90;13.30;;;;;;;9.61;82.76;100262.03;3582868;40;20707;-64
2021/12/24 06:43:52;;;;;;;32.75;14.52;;;;;;;9.60;83.46;100264.81;3583064;40;20048;-64
2021/12/24 06:46:17;;;;;;;26.77;12.25;;;;;;;9.57;83.46;100265.00;3582623;40;20453;-63
2021/12/24 06:48:45;;;;;;;22.55;12.75;;;;;;;9.65;83.42;100276.97;3581558;40;20059;-64
2021/12/24 06:51:11;;;;;;;26.73;12.75;;;;;;;9.65;83.15;100273.41;3580216;40;20052;-63
2021/12/24 06:53:37;;;;;;;26.00;12.60;;;;;;;9.62;83.10;100274.47;3581937;40;20303;-64
2021/12/24 06:56:04;;;;;;;28.88;13.43;;;;;;;9.66;83.21;100280.50;3582846;40;20373;-65
2021/12/24 06:58:29;;;;;;;26.80;13.85;;;;;;;9.70;83.38;100280.16;3583091;40;20044;-64
2021/12/24 07:00:55;;;;;;;29.25;14.63;;;;;;;9.64;83.19;100282.41;3582955;40;20096;-63
2021/12/24 07:03:20;;;;;;;28.95;15.90;;;;;;;9.62;82.97;100268.25;3580463;40;20068;-64
2021/12/24 07:05:46;;;;;;;32.10;16.08;;;;;;;9.66;82.69;100277.81;3580972;40;20052;-64
2021/12/24 07:08:12;;;;;;;27.02;16.25;;;;;;;9.39;83.22;100233.09;3581579;40;20264;-64
2021/12/24 07:10:37;;;;;;;28.30;16.38;;;;;;;9.58;82.76;100258.66;3582624;40;20095;-65
2021/12/24 07:13:03;;;;;;;35.42;16.58;;;;;;;9.66;83.32;100269.75;3577591;40;20056;-64
2021/12/24 07:15:28;;;;;;;30.25;17.63;;;;;;;9.59;82.63;100261.25;3579008;40;20059;-64
2021/12/24 07:17:54;;;;;;;32.85;16.00;;;;;;;9.64;83.18;100269.00;3582519;40;20067;-63
2021/12/24 07:20:20;;;;;;;28.60;15.93;;;;;;;9.59;82.59;100257.72;3582920;40;20064;-63
2021/12/24 07:22:45;;;;;;;32.20;17.38;;;;;;;9.56;82.74;100255.25;3582660;40;20064;-64
2021/12/24 07:25:11;;;;;;;33.28;17.33;;;;;;;9.61;82.59;100263.81;3581636;40;20064;-64
2021/12/24 07:27:38;;;;;;;31.52;18.27;;;;;;;9.65;82.52;100268.06;3580233;40;20060;-64
2021/12/24 07:30:09;;;;;;;33.97;19.30;;;;;;;9.59;82.73;100257.72;3580139;40;20074;-64
2021/12/24 07:32:35;;;;;;;34.40;19.15;;;;;;;9.66;82.87;100280.50;3578060;40;20067;-64
2021/12/24 07:35:00;;;;;;;33.13;19.40;;;;;;;9.59;82.88;100269.31;3578406;40;20052;-63
2021/12/24 07:37:26;;;;;;;38.83;19.42;;;;;;;9.48;83.00;100240.53;3581236;40;20650;-65
2021/12/24 07:39:52;;;;;;;37.80;19.52;;;;;;;9.51;82.93;100244.81;3579578;40;20055;-64
2021/12/24 07:42:17;;;;;;;30.75;19.35;;;;;;;9.41;82.60;100239.19;3579495;40;20059;-64
2021/12/24 07:44:43;;;;;;;31.27;18.58;;;;;;;9.53;82.65;100267.88;3581078;40;20565;-64
2021/12/24 07:47:16;;;;;;;35.17;19.35;;;;;;;9.50;82.73;100265.41;3576478;40;20052;-65
2021/12/24 07:49:44;;;;;;;35.92;19.10;;;;;;;9.51;82.76;100277.88;3578274;40;20041;-64
2021/12/24 07:52:11;;;;;;;38.38;19.45;;;;;;;9.51;83.32;100285.94;3582452;40;20056;-65
2021/12/24 07:54:43;;;;;;;30.45;18.33;;;;;;;9.55;82.45;100289.28;3575815;40;20052;-64
2021/12/24 07:57:12;;;;;;;29.75;18.77;;;;;;;9.50;82.64;100269.91;3582481;40;20052;-63
2021/12/24 07:59:40;;;;;;;37.70;18.63;;;;;;;9.62;83.13;100289.72;3582459;40;20060;-64
2021/12/24 08:02:17;;;;;;;29.33;18.85;;;;;;;9.54;82.56;100261.56;3578551;40;20059;-64
2021/12/24 08:04:46;;;;;;;34.13;18.88;;;;;;;9.58;82.54;100272.09;3581828;40;20056;-64
2021/12/24 08:07:13;;;;;;;32.83;18.30;;;;;;;9.58;82.25;100275.66;3581611;40;20056;-63
2021/12/24 08:09:39;;;;;;;31.33;17.08;;;;;;;9.54;81.99;100263.38;3582272;40;20110;-62
2021/12/24 08:12:09;;;;;;;31.27;17.92;;;;;;;9.51;82.61;100258.22;3615807;22;20057;-66
2021/12/24 08:14:36;;;;;;;33.10;17.63;;;;;;;9.41;82.16;100259.78;3573304;40;20175;-64
2021/12/24 08:17:02;;;;;;;29.23;17.70;;;;;;;9.40;82.91;100269.66;3579241;40;20059;-64
2021/12/24 08:19:29;;;;;;;33.10;17.75;;;;;;;9.36;82.92;100265.47;3578320;40;20057;-66
2021/12/24 08:21:56;;;;;;;33.22;18.13;;;;;;;9.37;82.58;100274.38;3570606;40;20399;-64
2021/12/24 08:24:22;;;;;;;37.55;17.58;;;;;;;9.38;82.57;100282.31;3579650;40;20048;-63
2021/12/24 08:26:48;;;;;;;33.80;17.23;;;;;;;9.39;82.91;100288.56;3575537;40;20051;-64
2021/12/24 08:29:14;;;;;;;36.72;17.45;;;;;;;9.34;82.62;100282.63;3578278;40;20134;-64
2021/12/24 08:31:40;;;;;;;34.40;17.25;;;;;;;9.36;82.59;100288.75;3578678;40;20052;-64
2021/12/24 08:34:06;;;;;;;29.45;17.25;;;;;;;9.24;82.81;100263.59;3574638;40;20056;-63
2021/12/24 08:36:34;;;;;;;33.75;17.50;;;;;;;9.40;83.25;100275.03;3575168;40;20345;-64
2021/12/24 08:39:00;;;;;;;34.95;16.70;;;;;;;9.30;83.15;100257.84;3579123;40;20068;-63
2021/12/24 08:41:26;;;;;;;29.77;17.02;;;;;;;9.23;82.71;100237.75;3576519;40;20137;-63
2021/12/24 08:43:52;;;;;;;40.95;19.38;;;;;;;9.46;82.78;100269.28;3579206;40;20126;-66
2021/12/24 08:46:18;;;;;;;39.00;20.52;;;;;;;9.31;82.36;100232.72;3582155;40;20362;-63
2021/12/24 08:48:44;;;;;;;33.60;20.85;;;;;;;9.39;82.40;100241.13;3577055;40;20059;-63
2021/12/24 08:51:11;;;;;;;38.10;21.50;;;;;;;9.53;82.38;100265.22;3577677;40;20467;-63
2021/12/24 08:53:38;;;;;;;36.20;21.55;;;;;;;9.52;82.99;100263.50;3579583;40;20291;-64
2021/12/24 08:56:04;;;;;;;42.22;23.83;;;;;;;9.62;82.54;100265.56;3582220;40;20051;-64
2021/12/24 08:58:29;;;;;;;39.08;23.38;;;;;;;9.66;82.43;100269.75;3566329;40;20714;-64
2021/12/24 09:00:55;;;;;;;41.47;23.80;;;;;;;9.68;82.42;100263.34;3577515;40;20065;-63
2021/12/24 09:03:21;;;;;;;41.83;23.40;;;;;;;9.50;82.26;100222.47;3576771;40;20406;-63
2021/12/24 09:05:47;;;;;;;36.72;22.90;;;;;;;9.74;82.04;100262.06;3578627;40;20060;-63
2021/12/24 09:08:12;;;;;;;40.10;22.95;;;;;;;9.72;81.60;100250.56;3576527;40;20056;-63
2021/12/24 09:10:38;;;;;;;37.97;22.95;;;;;;;9.82;82.06;100264.22;3579580;40;20075;-64
2021/12/24 09:13:04;;;;;;;45.13;23.83;;;;;;;9.81;82.16;100258.00;3574947;40;20065;-64
2021/12/24 09:15:30;;;;;;;39.85;24.50;;;;;;;9.91;81.32;100264.44;3577389;40;20108;-64
2021/12/24 09:18:02;;;;;;;41.33;23.50;;;;;;;9.90;81.30;100251.16;3578068;40;20088;-64
2021/12/24 09:20:37;;;;;;;38.22;22.58;;;;;;;9.99;81.17;100251.38;3577110;40;20487;-64
2021/12/24 09:23:04;;;;;;;42.85;21.65;;;;;;;10.01;80.73;100253.94;3576461;40;20583;-64
2021/12/24 09:25:31;;;;;;;39.33;22.88;;;;;;;10.06;80.74;100259.00;3575144;40;20509;-64
2021/12/24 09:27:59;;;;;;;45.90;22.30;;;;;;;9.76;81.13;100212.66;3577697;40;20063;-64
2021/12/24 09:30:28;;;;;;;42.50;22.85;;;;;;;9.88;80.73;100226.22;3569507;40;20066;-64
2021/12/24 09:32:54;;;;;;;40.47;21.70;;;;;;;9.83;80.95;100223.88;3578646;40;20314;-64
2021/12/24 09:35:22;;;;;;;38.95;22.42;;;;;;;10.06;80.51;100267.94;3578399;40;20809;-64
2021/12/24 09:37:48;;;;;;;39.42;22.63;;;;;;;10.06;80.92;100267.94;3579726;40;20114;-64
2021/12/24 09:40:16;;;;;;;40.50;22.90;;;;;;;10.05;80.25;100265.31;3579593;40;20056;-64
2021/12/24 09:42:42;;;;;;;41.25;22.30;;;;;;;10.06;80.54;100275.13;3577503;40;20054;-64
2021/12/24 09:45:10;;;;;;;42.13;22.95;;;;;;;10.07;79.99;100266.09;3569750;40;20068;-64
2021/12/24 09:47:36;;;;;;;41.72;23.10;;;;;;;10.10;80.22;100263.19;3576303;40;20056;-64
2021/12/24 09:50:06;;;;;;;38.72;22.38;;;;;;;10.08;80.82;100265.13;3575896;40;20382;-64
2021/12/24 09:52:33;;;;;;;40.50;23.65;;;;;;;10.06;80.52;100267.94;3577577;40;20060;-64
2021/12/24 09:55:12;;;;;;;47.75;24.95;;;;;;;10.07;80.76;100263.41;3577136;40;20052;-64
2021/12/24 09:57:38;;;;;;;39.70;23.13;;;;;;;10.06;80.80;100261.69;3578127;40;20048;-64
2021/12/24 10:00:07;;;;;;;43.47;25.88;;;;;;;10.09;80.25;100261.50;3576157;40;20049;-64
2021/12/24 10:02:45;;;;;;;47.15;25.55;;;;;;;10.05;80.77;100252.75;3580217;40;20061;-64
2021/12/24 10:05:35;;;;;;;44.33;25.95;;;;;;;10.07;80.64;100258.03;3577007;40;20057;-64
2021/12/24 10:08:10;;;;;;;46.67;26.65;;;;;;;10.05;80.88;100262.66;3582361;40;20153;-65
2021/12/24 10:10:42;;;;;;;56.25;28.75;;;;;;;10.00;80.75;100254.91;3576711;40;20067;-65
2021/12/24 10:13:38;;;;;;;47.30;27.77;;;;;;;10.05;81.13;100259.97;3581951;40;20051;-64
2021/12/24 10:16:19;;;;;;;45.17;28.65;;;;;;;10.05;80.57;100255.44;3580372;40;20052;-64
2021/12/24 10:18:56;;;;;;;48.50;27.98;;;;;;;10.06;80.68;100259.88;3577705;40;20060;-65
2021/12/24 10:21:25;;;;;;;54.40;28.77;;;;;;;10.09;80.86;100253.44;3577449;40;20048;-65
2021/12/24 10:24:02;;;;;;;47.10;26.08;;;;;;;9.98;81.17;100244.25;3581902;40;20051;-65
2021/12/24 10:26:35;;;;;;;47.45;28.63;;;;;;;10.10;80.89;100252.47;3581203;40;20072;-64
2021/12/24 10:29:12;;;;;;;46.25;28.52;;;;;;;10.13;80.90;100260.31;3580153;40;20063;-64
2021/12/24 10:31:51;;;;;;;52.03;29.17;;;;;;;10.14;80.93;100259.31;3574891;40;20481;-65
2021/12/24 10:34:29;;;;;;;47.38;27.58;;;;;;;10.13;80.50;100254.94;3570313;40;20468;-65
2021/12/24 10:37:18;;;;;;;59.50;31.10;;;;;;;10.15;80.97;100250.31;3578724;40;20059;-65
2021/12/24 10:39:55;;;;;;;53.85;30.10;;;;;;;10.12;80.72;100240.66;3573742;40;20053;-65
2021/12/24 10:42:37;;;;;;;54.92;31.05;;;;;;;10.11;80.60;100240.75;3576794;40;20052;-65
2021/12/24 10:45:17;;;;;;;54.05;32.72;;;;;;;10.18;80.38;100247.41;3569204;40;20053;-65
2021/12/24 10:47:43;;;;;;;61.72;34.83;;;;;;;10.19;80.90;100246.44;3578309;40;20059;-64
2021/12/24 10:55:36;;;;;;;58.95;35.63;;;;;;;10.31;80.46;100240.25;3573103;40;20059;-65
2021/12/24 10:58:05;;;;;;;60.50;36.25;;;;;;;10.31;80.47;100231.34;3578499;40;20052;-65
2021/12/24 11:00:46;;;;;;;67.63;39.45;;;;;;;10.36;80.41;100230.03;3580326;40;20068;-65
2021/12/24 11:03:22;;;;;;;65.18;39.45;;;;;;;10.39;80.35;100227.13;3578836;40;20060;-65
2021/12/24 11:06:11;;;;;;;69.53;41.17;;;;;;;10.35;80.10;100222.94;3577026;40;20049;-65
2021/12/24 11:08:38;;;;;;;68.28;39.22;;;;;;;10.38;80.30;100228.09;3580864;40;20055;-68
2021/12/24 11:11:07;;;;;;;67.82;38.55;;;;;;;10.41;80.60;100227.88;3574159;40;20049;-65
2021/12/24 11:13:41;;;;;;;63.83;39.97;;;;;;;10.25;80.05;100216.47;3577208;40;20051;-65
2021/12/24 11:16:14;;;;;;;63.10;41.80;;;;;;;10.40;80.25;100231.56;3576201;40;20063;-65
2021/12/24 11:18:46;;;;;;;65.93;40.75;;;;;;;10.42;79.75;100226.91;3577804;40;20084;-65
2021/12/24 11:21:18;;;;;;;60.92;38.97;;;;;;;10.46;80.19;100230.25;3574078;40;20061;-66
2021/12/24 11:23:43;;;;;;;60.85;39.45;;;;;;;10.49;79.71;100227.34;3578332;40;20059;-66
2021/12/24 11:26:27;;;;;;;67.55;40.33;;;;;;;10.52;79.57;100231.63;3574466;40;20048;-65
2021/12/24 11:28:53;;;;;;;64.93;41.63;;;;;;;10.54;79.69;100224.34;3579069;40;20117;-66
2021/12/24 11:31:24;;;;;;;59.63;39.92;;;;;;;10.54;79.23;100229.72;3578088;40;20056;-66
2021/12/24 11:33:53;;;;;;;65.25;41.60;;;;;;;10.53;79.69;100219.91;3575589;40;20061;-66
2021/12/24 11:36:24;;;;;;;66.22;39.75;;;;;;;10.55;79.08;100236.78;3579841;40;20156;-66
2021/12/24 11:38:57;;;;;;;63.35;40.90;;;;;;;10.54;79.24;100233.25;3581534;40;20092;-66
2021/12/24 11:41:29;;;;;;;56.13;37.95;;;;;;;10.54;78.75;100241.31;3580155;40;20068;-65
2021/12/24 11:43:56;;;;;;;55.65;37.25;;;;;;;10.44;79.34;100230.38;3581530;40;20076;-64
2021/12/24 11:46:25;;;;;;;61.92;36.50;;;;;;;10.50;79.62;100241.63;3580095;40;20059;-65
2021/12/24 11:48:55;;;;;;;52.92;35.45;;;;;;;10.51;79.67;100246.06;3580276;40;20048;-64
2021/12/24 11:51:29;;;;;;;58.92;35.30;;;;;;;10.49;79.05;100242.59;3577065;40;20068;-64
2021/12/24 11:54:02;;;;;;;57.85;34.42;;;;;;;10.47;79.40;100241.88;3580933;40;20052;-65
2021/12/24 11:56:40;;;;;;;56.83;36.00;;;;;;;10.42;79.80;100237.66;3578207;40;20064;-66
2021/12/24 11:59:05;;;;;;;53.63;35.42;;;;;;;10.41;79.73;100235.94;3575357;40;20049;-64
2021/12/24 12:01:41;;;;;;;51.72;34.55;;;;;;;10.39;79.67;100232.50;3577538;40;20071;-65
2021/12/24 12:04:22;;;;;;;55.28;36.00;;;;;;;10.40;80.16;100234.25;3582436;40;20113;-64
2021/12/24 12:06:50;;;;;;;54.55;35.17;;;;;;;10.41;79.96;100235.94;3579777;40;20059;-64
2021/12/24 12:09:16;;;;;;;51.53;34.65;;;;;;;10.40;80.36;100228.88;3578172;40;20055;-64
2021/12/24 12:11:45;;;;;;;57.88;33.92;;;;;;;10.32;80.58;100216.94;3580668;40;20049;-64
2021/12/24 12:14:11;;;;;;;56.95;34.92;;;;;;;10.36;80.24;100227.34;3580633;40;20056;-65
2021/12/24 12:16:42;;;;;;;61.75;35.58;;;;;;;10.37;81.06;100222.81;3581953;40;20052;-64
2021/12/24 12:19:13;;;;;;;56.10;34.85;;;;;;;10.37;81.24;100223.72;3579208;40;20083;-65
2021/12/24 12:21:44;;;;;;;51.47;34.38;;;;;;;10.36;81.15;100221.97;3567642;40;20331;-65
2021/12/24 12:26:48;;;;;;;62.95;35.10;;;;;;;10.33;81.43;100227.56;3581274;40;20056;-64
2021/12/24 12:29:47;;;;;;;59.75;33.80;;;;;;;10.30;81.18;100229.59;3581959;40;20052;-65
2021/12/24 12:32:12;;;;;;;57.55;34.67;;;;;;;10.29;81.18;100225.22;3572504;40;20068;-65
2021/12/24 12:34:38;;;;;;;58.63;34.65;;;;;;;10.27;81.84;100216.38;3578681;40;20381;-65
2021/12/24 12:37:41;;;;;;;58.72;34.25;;;;;;;10.26;81.81;100215.53;3582547;40;20058;-65
2021/12/24 12:40:12;;;;;;;59.08;33.88;;;;;;;10.27;81.65;100217.25;3577754;40;20149;-65
2021/12/24 12:42:55;;;;;;;56.25;33.42;;;;;;;10.26;82.49;100218.22;3582327;40;20601;-65
2021/12/24 12:45:43;;;;;;;55.80;34.50;;;;;;;10.26;81.61;100220.03;3581910;40;20056;-65
2021/12/24 12:48:22;;;;;;;55.33;32.97;;;;;;;10.23;81.85;100215.72;3578398;40;20477;-65
2021/12/24 12:50:57;;;;;;;54.20;33.88;;;;;;;10.29;82.59;100215.31;3579780;40;20055;-65
2021/12/24 12:53:36;;;;;;;52.78;32.17;;;;;;;10.32;82.26;100220.47;3577495;40;20060;-65
2021/12/24 12:56:30;;;;;;;47.45;30.55;;;;;;;10.36;81.58;100219.28;3578536;40;20057;-65
2021/12/24 12:59:07;;;;;;;53.33;31.50;;;;;;;10.41;81.72;100219.84;3580015;40;20474;-65
2021/12/24 13:01:51;;;;;;;52.85;30.88;;;;;;;10.44;81.08;100210.69;3581391;40;20308;-65
2021/12/24 13:04:17;;;;;;;51.03;30.40;;;;;;;10.44;80.91;100210.69;3573994;40;20157;-65
2021/12/24 13:06:42;;;;;;;49.55;29.92;;;;;;;10.49;81.29;100211.22;3576600;40;20056;-65